Time;durP1;ratioP1;P1;durP2;ratioP2;P2;SDS_P1;SDS_P2;PMS_P1;PMS_P2;Temp;Humidity;BMP_temperature;BMP_pressure;BME280_temperature;BME280_humidity;BME280_pressure;Samples;Min_cycle;Max_cycle;Signal;HPM_P1;HPM_P2
2022/12/06 00:02:04;;;;;;;;;;;18.70;83.30;;;;;;5094513;28;19965;-40
2022/12/06 00:04:29;;;;;;;;;;;18.70;83.30;;;;;;5094342;28;19914;-39
2022/12/06 00:06:56;;;;;;;;;;;18.70;83.10;;;;;;5094457;28;19923;-39
2022/12/06 00:09:21;;;;;;;;;;;18.70;83.10;;;;;;5093902;28;20408;-39
2022/12/06 00:11:47;;;;;;;;;;;18.70;82.90;;;;;;5094067;28;19908;-39
2022/12/06 00:14:13;;;;;;;;;;;18.70;82.90;;;;;;5094458;28;19916;-39
2022/12/06 00:16:38;;;;;;;;;;;18.70;83.10;;;;;;5094264;28;19908;-39
2022/12/06 00:19:04;;;;;;;;;;;18.70;83.60;;;;;;5094369;28;19908;-40
2022/12/06 00:21:34;;;;;;;;;;;18.70;83.10;;;;;;5076409;28;20387;-39
2022/12/06 00:24:04;;;;;;;;;;;18.70;83.10;;;;;;5076321;28;20261;-39
2022/12/06 00:26:30;;;;;;;;;;;18.70;83.10;;;;;;5094131;28;19908;-40
2022/12/06 00:28:57;;;;;;;;;;;18.70;83.10;;;;;;5094054;28;19968;-40
2022/12/06 00:31:24;;;;;;;;;;;18.80;83.10;;;;;;5075857;28;19908;-39
2022/12/06 00:33:50;;;;;;;;;;;18.80;83.00;;;;;;5093918;28;19920;-40
2022/12/06 00:36:17;;;;;;;;;;;18.80;82.90;;;;;;5094206;28;19908;-40
2022/12/06 00:38:43;;;;;;;;;;;18.80;82.90;;;;;;5093863;28;19951;-39
2022/12/06 00:41:10;;;;;;;;;;;18.80;83.00;;;;;;5094167;28;19908;-40
2022/12/06 00:43:36;;;;;;;;;;;18.80;83.00;;;;;;5094414;28;19915;-40
2022/12/06 00:46:02;;;;;;;;;;;18.80;83.00;;;;;;5093832;28;19943;-39
2022/12/06 00:48:28;;;;;;;;;;;18.80;83.10;;;;;;5094001;28;19908;-39
2022/12/06 00:50:53;;;;;;;;;;;18.80;83.20;;;;;;5093722;28;19916;-39
2022/12/06 00:53:19;;;;;;;;;;;18.80;83.20;;;;;;5093630;28;19912;-40
2022/12/06 00:55:44;;;;;;;;;;;18.70;83.10;;;;;;5093974;28;19912;-39
2022/12/06 00:58:10;;;;;;;;;;;18.80;83.20;;;;;;5093751;28;20388;-40
2022/12/06 01:00:36;;;;;;;;;;;18.70;83.10;;;;;;5093626;28;19969;-40
2022/12/06 01:03:01;;;;;;;;;;;18.80;83.20;;;;;;5093702;28;19908;-39
2022/12/06 01:05:27;;;;;;;;;;;18.80;83.30;;;;;;5094158;28;20274;-40
2022/12/06 01:07:52;;;;;;;;;;;18.80;83.40;;;;;;5093574;28;19908;-40
2022/12/06 01:10:18;;;;;;;;;;;18.80;83.40;;;;;;5093560;28;20000;-40
2022/12/06 01:12:43;;;;;;;;;;;18.80;83.40;;;;;;5093510;28;20000;-39
2022/12/06 01:15:09;;;;;;;;;;;18.80;83.40;;;;;;5093446;28;19963;-40
2022/12/06 01:17:35;;;;;;;;;;;18.80;83.40;;;;;;5093761;28;19919;-40
2022/12/06 01:20:00;;;;;;;;;;;18.80;83.40;;;;;;5094350;28;20342;-40
2022/12/06 01:22:26;;;;;;;;;;;18.80;83.40;;;;;;5097334;28;19967;-40
2022/12/06 01:24:52;;;;;;;;;;;18.80;83.40;;;;;;5097543;28;19911;-40
2022/12/06 01:27:17;;;;;;;;;;;18.80;83.20;;;;;;5097522;28;19909;-40
2022/12/06 01:29:42;;;;;;;;;;;18.80;83.20;;;;;;5097512;28;19931;-40
2022/12/06 01:32:08;;;;;;;;;;;18.90;83.20;;;;;;5097356;28;20387;-40
2022/12/06 01:34:34;;;;;;;;;;;18.90;83.10;;;;;;5097271;28;19983;-39
2022/12/06 01:36:59;;;;;;;;;;;18.90;83.10;;;;;;5097036;28;19908;-39
2022/12/06 01:39:24;;;;;;;;;;;19.00;83.10;;;;;;5096873;28;19908;-39
2022/12/06 01:41:50;;;;;;;;;;;19.00;83.00;;;;;;5097227;28;19912;-40
2022/12/06 01:44:36;;;;;;;;;;;19.00;83.40;;;;;;5097507;28;19908;-40
2022/12/06 01:47:02;;;;;;;;;;;19.10;82.90;;;;;;5096781;28;20440;-39
2022/12/06 01:49:31;;;;;;;;;;;19.10;82.90;;;;;;5097086;28;19908;-40
2022/12/06 01:51:58;;;;;;;;;;;19.10;82.80;;;;;;5097090;28;19912;-39
2022/12/06 01:54:24;;;;;;;;;;;19.10;82.80;;;;;;5078523;28;19912;-40
2022/12/06 01:56:51;;;;;;;;;;;19.10;82.80;;;;;;5096710;28;19918;-40
2022/12/06 01:59:17;;;;;;;;;;;19.10;82.70;;;;;;5096967;28;20023;-40
2022/12/06 02:01:42;;;;;;;;;;;19.10;82.90;;;;;;5096436;28;20347;-40
2022/12/06 02:04:08;;;;;;;;;;;19.10;82.90;;;;;;5096826;28;19908;-40
2022/12/06 02:06:34;;;;;;;;;;;19.10;82.80;;;;;;5096783;28;19968;-40
2022/12/06 02:09:01;;;;;;;;;;;19.10;83.00;;;;;;5096745;28;20368;-39
2022/12/06 02:11:26;;;;;;;;;;;19.10;82.90;;;;;;5096395;28;19912;-40
2022/12/06 02:13:52;;;;;;;;;;;19.10;83.00;;;;;;5096281;28;20256;-40
2022/12/06 02:16:36;;;;;;;;;;;19.10;83.00;;;;;;5096352;28;19916;-40
2022/12/06 02:19:05;;;;;;;;;;;19.10;83.00;;;;;;5096430;28;19909;-40
2022/12/06 02:21:39;;;;;;;;;;;19.10;83.10;;;;;;5096510;28;19912;-39
2022/12/06 02:24:10;;;;;;;;;;;19.10;83.00;;;;;;5096347;28;20278;-39
2022/12/06 02:26:43;;;;;;;;;;;19.10;82.90;;;;;;5096417;28;19915;-39
2022/12/06 02:29:17;;;;;;;;;;;19.10;83.10;;;;;;5096140;28;19915;-40
2022/12/06 02:31:53;;;;;;;;;;;19.10;83.00;;;;;;5095962;28;20386;-40
2022/12/06 02:34:28;;;;;;;;;;;19.10;83.00;;;;;;5077788;28;20006;-39
2022/12/06 02:36:57;;;;;;;;;;;19.10;83.00;;;;;;5095995;28;19908;-39
2022/12/06 02:39:25;;;;;;;;;;;19.20;83.00;;;;;;5096194;28;19908;-40
2022/12/06 02:41:55;;;;;;;;;;;19.20;83.00;;;;;;5095837;28;19952;-40
2022/12/06 02:44:32;;;;;;;;;;;19.20;83.00;;;;;;5096099;28;19908;-40
2022/12/06 02:47:00;;;;;;;;;;;19.10;82.90;;;;;;5096070;28;19908;-39
2022/12/06 02:49:26;;;;;;;;;;;19.20;83.00;;;;;;5095673;28;19915;-40
2022/12/06 02:51:53;;;;;;;;;;;19.20;83.00;;;;;;5095603;28;19914;-40
2022/12/06 02:54:20;;;;;;;;;;;19.20;83.00;;;;;;5095539;28;19919;-39
2022/12/06 02:56:45;;;;;;;;;;;19.20;83.00;;;;;;5095572;28;19912;-40
2022/12/06 02:59:11;;;;;;;;;;;19.20;82.90;;;;;;5095512;28;20011;-40
2022/12/06 03:01:39;;;;;;;;;;;19.20;82.90;;;;;;5095471;28;19912;-39
2022/12/06 03:04:11;;;;;;;;;;;19.10;82.70;;;;;;5095412;28;19916;-39
2022/12/06 03:06:42;;;;;;;;;;;19.20;83.00;;;;;;5095564;28;19909;-39
2022/12/06 03:09:22;;;;;;;;;;;19.20;82.90;;;;;;5095917;28;20331;-40
2022/12/06 03:11:54;;;;;;;;;;;19.30;82.90;;;;;;5095266;28;19936;-40
2022/12/06 03:14:22;;;;;;;;;;;19.30;82.80;;;;;;5095067;28;19912;-39
2022/12/06 03:16:49;;;;;;;;;;;19.30;82.80;;;;;;5095427;28;19916;-39
2022/12/06 03:19:23;;;;;;;;;;;19.30;82.80;;;;;;5095109;28;19914;-39
2022/12/06 03:21:52;;;;;;;;;;;19.30;82.90;;;;;;5077048;28;19949;-40
2022/12/06 03:24:20;;;;;;;;;;;19.30;82.80;;;;;;5094884;28;20256;-39
2022/12/06 03:26:47;;;;;;;;;;;19.30;82.80;;;;;;5095226;28;20341;-39
2022/12/06 03:29:14;;;;;;;;;;;19.30;82.80;;;;;;5095112;28;19914;-40
2022/12/06 03:31:40;;;;;;;;;;;19.30;82.80;;;;;;5095157;28;19915;-40
2022/12/06 03:34:10;;;;;;;;;;;19.30;82.90;;;;;;5095043;28;19920;-40
2022/12/06 03:36:37;;;;;;;;;;;19.30;82.80;;;;;;5077008;28;20300;-39
2022/12/06 03:39:04;;;;;;;;;;;19.30;82.80;;;;;;5094944;28;19908;-40
2022/12/06 03:41:31;;;;;;;;;;;19.30;82.90;;;;;;5094629;28;19908;-40
2022/12/06 03:43:58;;;;;;;;;;;19.30;82.80;;;;;;5094287;28;19919;-40
2022/12/06 03:46:26;;;;;;;;;;;19.30;82.80;;;;;;5076770;28;19908;-39
2022/12/06 03:48:54;;;;;;;;;;;19.30;82.80;;;;;;5094783;28;19916;-40
2022/12/06 03:51:25;;;;;;;;;;;19.30;82.80;;;;;;5094791;28;20003;-39
2022/12/06 03:53:52;;;;;;;;;;;19.30;82.70;;;;;;5094603;28;19923;-39
2022/12/06 03:56:18;;;;;;;;;;;19.30;82.80;;;;;;5094405;28;19908;-40
2022/12/06 03:58:44;;;;;;;;;;;19.30;82.70;;;;;;5094975;28;19954;-40
2022/12/06 04:01:10;;;;;;;;;;;19.40;82.70;;;;;;5094589;28;20002;-40
2022/12/06 04:03:35;;;;;;;;;;;19.40;82.70;;;;;;5094576;28;19908;-39
2022/12/06 04:06:01;;;;;;;;;;;19.40;82.60;;;;;;5079956;28;19919;-43
2022/12/06 04:08:27;;;;;;;;;;;19.50;82.30;;;;;;5095070;28;19916;-40
2022/12/06 04:10:52;;;;;;;;;;;19.50;82.30;;;;;;5093196;28;19921;-42
2022/12/06 04:13:18;;;;;;;;;;;19.50;82.30;;;;;;5092936;28;19908;-40
2022/12/06 04:15:43;;;;;;;;;;;19.50;82.30;;;;;;5092952;28;20231;-40
2022/12/06 04:18:13;;;;;;;;;;;19.50;82.30;;;;;;5094445;28;19908;-40
2022/12/06 04:23:24;;;;;;;;;;;19.50;82.30;;;;;;5091352;28;20006;-40
2022/12/06 04:25:50;;;;;;;;;;;19.50;82.30;;;;;;5094150;28;19940;-39
2022/12/06 04:39:12;;;;;;;;;;;19.50;82.80;;;;;;5092441;28;19911;-40
2022/12/06 04:44:21;;;;;;;;;;;19.50;82.90;;;;;;5092649;28;19911;-39
2022/12/06 04:46:47;;;;;;;;;;;19.50;82.90;;;;;;5092240;28;19904;-40
2022/12/06 04:49:12;;;;;;;;;;;19.50;82.80;;;;;;5093439;28;20301;-39
2022/12/06 04:51:38;;;;;;;;;;;19.50;82.90;;;;;;5093777;28;20003;-39
2022/12/06 04:54:04;;;;;;;;;;;19.40;82.80;;;;;;5093629;28;19908;-40
2022/12/06 04:56:29;;;;;;;;;;;19.50;82.80;;;;;;5097022;28;20365;-40
2022/12/06 04:58:55;;;;;;;;;;;19.50;82.60;;;;;;5098189;28;19904;-40
2022/12/06 05:01:21;;;;;;;;;;;19.50;82.60;;;;;;5097702;28;20381;-40
2022/12/06 05:03:46;;;;;;;;;;;19.50;82.60;;;;;;5097819;28;19908;-40
2022/12/06 05:06:12;;;;;;;;;;;19.50;82.60;;;;;;5079870;28;19919;-40
2022/12/06 05:08:37;;;;;;;;;;;19.50;82.50;;;;;;5097920;28;19904;-40
2022/12/06 05:11:03;;;;;;;;;;;19.50;82.60;;;;;;5098112;28;19908;-40
2022/12/06 05:13:28;;;;;;;;;;;19.50;82.60;;;;;;5097544;28;19908;-39
2022/12/06 05:15:55;;;;;;;;;;;19.50;82.40;;;;;;5097741;28;19908;-40
2022/12/06 05:18:21;;;;;;;;;;;19.60;82.40;;;;;;5097657;28;19904;-40
2022/12/06 05:20:46;;;;;;;;;;;19.60;82.40;;;;;;5097405;28;20299;-39
2022/12/06 05:23:12;;;;;;;;;;;19.60;82.30;;;;;;5097198;28;19944;-40
2022/12/06 05:25:38;;;;;;;;;;;19.60;82.30;;;;;;5097071;28;19904;-40
2022/12/06 05:28:03;;;;;;;;;;;19.60;82.30;;;;;;5079345;28;19904;-40
2022/12/06 05:30:29;;;;;;;;;;;19.60;82.30;;;;;;5097413;28;19904;-40
2022/12/06 05:32:54;;;;;;;;;;;19.60;82.30;;;;;;5097135;28;19904;-40
2022/12/06 05:35:20;;;;;;;;;;;19.60;82.30;;;;;;5096686;28;19946;-40
2022/12/06 05:37:46;;;;;;;;;;;19.70;82.30;;;;;;5079141;28;19911;-40
2022/12/06 05:40:11;;;;;;;;;;;19.60;82.30;;;;;;5097074;28;19908;-41
2022/12/06 05:42:38;;;;;;;;;;;19.60;82.30;;;;;;5097265;28;19908;-39
2022/12/06 05:45:04;;;;;;;;;;;19.70;82.30;;;;;;5097343;28;19995;-40
2022/12/06 05:47:30;;;;;;;;;;;19.70;82.30;;;;;;5096827;28;20338;-40
2022/12/06 05:49:55;;;;;;;;;;;19.70;82.20;;;;;;5096798;28;20007;-40
2022/12/06 05:52:20;;;;;;;;;;;19.70;82.20;;;;;;5097144;28;19908;-40
2022/12/06 05:54:46;;;;;;;;;;;19.70;82.10;;;;;;5097053;28;19922;-40
2022/12/06 05:57:11;;;;;;;;;;;19.70;82.10;;;;;;5096590;28;19954;-43
2022/12/06 05:59:37;;;;;;;;;;;19.80;82.20;;;;;;5096944;28;19945;-39
2022/12/06 06:02:02;;;;;;;;;;;19.80;82.20;;;;;;5096545;28;19939;-40
2022/12/06 06:04:28;;;;;;;;;;;19.80;82.20;;;;;;5096814;28;19904;-39
2022/12/06 06:06:53;;;;;;;;;;;19.80;82.10;;;;;;5096010;28;20285;-40
2022/12/06 06:09:19;;;;;;;;;;;19.80;82.20;;;;;;5096545;28;19904;-40
2022/12/06 06:11:44;;;;;;;;;;;19.80;82.30;;;;;;5096547;28;19904;-40
2022/12/06 06:14:09;;;;;;;;;;;19.80;82.20;;;;;;5096058;28;19919;-40
2022/12/06 06:16:35;;;;;;;;;;;19.80;82.00;;;;;;5096072;28;19978;-39
2022/12/06 06:19:00;;;;;;;;;;;19.80;82.20;;;;;;5091416;28;19913;-40
2022/12/06 06:21:26;;;;;;;;;;;19.80;82.30;;;;;;5098521;28;20374;-41
2022/12/06 06:23:52;;;;;;;;;;;19.70;82.20;;;;;;5094997;28;19908;-40
2022/12/06 06:26:17;;;;;;;;;;;19.70;82.30;;;;;;5095280;28;20274;-40
2022/12/06 06:28:43;;;;;;;;;;;19.70;82.30;;;;;;5096175;28;19912;-40
2022/12/06 06:31:08;;;;;;;;;;;19.70;82.40;;;;;;5077883;28;19915;-40
2022/12/06 06:33:35;;;;;;;;;;;19.60;82.40;;;;;;5095909;28;20442;-40
2022/12/06 06:36:00;;;;;;;;;;;19.60;82.60;;;;;;5094643;28;19912;-39
2022/12/06 06:38:26;;;;;;;;;;;19.60;82.00;;;;;;5109492;28;19912;-40
2022/12/06 06:40:51;;;;;;;;;;;19.60;82.70;;;;;;5115883;28;19910;-39
2022/12/06 06:43:17;;;;;;;;;;;19.60;82.70;;;;;;5113390;28;19915;-40
2022/12/06 06:45:56;;;;;;;;;;;19.60;82.70;;;;;;5093974;28;19919;-39
2022/12/06 06:48:22;;;;;;;;;;;19.60;83.40;;;;;;5107121;28;19916;-40
2022/12/06 06:50:48;;;;;;;;;;;19.60;82.70;;;;;;5095516;28;19908;-41
2022/12/06 06:53:14;;;;;;;;;;;19.60;82.90;;;;;;5103701;28;19911;-40
2022/12/06 06:55:39;;;;;;;;;;;19.60;83.40;;;;;;5110277;28;20365;-40
2022/12/06 06:58:05;;;;;;;;;;;19.60;82.90;;;;;;5089516;28;19969;-41
2022/12/06 07:00:31;;;;;;;;;;;19.70;83.40;;;;;;5091217;28;20322;-41
2022/12/06 07:02:56;;;;;;;;;;;19.70;83.60;;;;;;5115458;28;20119;-40
2022/12/06 07:05:22;;;;;;;;;;;19.70;83.40;;;;;;5113575;28;19947;-40
2022/12/06 07:07:48;;;;;;;;;;;19.70;83.30;;;;;;5114182;28;20407;-40
2022/12/06 07:10:13;;;;;;;;;;;19.70;83.30;;;;;;5106898;28;19916;-42
2022/12/06 07:12:39;;;;;;;;;;;19.70;83.20;;;;;;5098684;28;20007;-40
2022/12/06 07:15:05;;;;;;;;;;;19.70;83.10;;;;;;5103507;28;19927;-45
2022/12/06 07:17:30;;;;;;;;;;;19.80;83.00;;;;;;5085530;28;20285;-40
2022/12/06 07:19:56;;;;;;;;;;;19.70;83.20;;;;;;5094375;28;19920;-43
2022/12/06 07:22:21;;;;;;;;;;;19.80;83.10;;;;;;5094131;28;19912;-43
2022/12/06 07:24:47;;;;;;;;;;;19.90;83.00;;;;;;5091901;28;19916;-41
2022/12/06 07:27:12;;;;;;;;;;;19.80;82.90;;;;;;5094989;28;20354;-41
2022/12/06 07:29:38;;;;;;;;;;;19.90;82.80;;;;;;5113578;28;19912;-41
2022/12/06 07:32:03;;;;;;;;;;;19.90;82.90;;;;;;5094317;28;19912;-40
2022/12/06 07:34:29;;;;;;;;;;;19.90;82.80;;;;;;5092330;28;19921;-40
2022/12/06 07:36:55;;;;;;;;;;;20.00;82.80;;;;;;5109563;28;20274;-42
2022/12/06 07:39:21;;;;;;;;;;;20.00;82.70;;;;;;5094830;28;19922;-40
2022/12/06 07:47:35;;;;;;;;;;;20.10;82.50;;;;;;5027547;28;19919;-41
2022/12/06 07:50:01;;;;;;;;;;;20.10;82.50;;;;;;5059333;28;19931;-41
2022/12/06 07:52:31;;;;;;;;;;;20.10;82.60;;;;;;5086768;28;20373;-40
2022/12/06 07:54:56;;;;;;;;;;;20.10;82.60;;;;;;5086258;28;19969;-41
2022/12/06 07:57:21;;;;;;;;;;;20.00;82.60;;;;;;5092650;28;19913;-41
2022/12/06 07:59:47;;;;;;;;;;;20.10;82.80;;;;;;5093106;28;20282;-42
2022/12/06 08:02:17;;;;;;;;;;;20.00;82.80;;;;;;5092354;28;19912;-52
2022/12/06 08:04:43;;;;;;;;;;;19.90;82.80;;;;;;5092514;28;20012;-40
2022/12/06 08:07:08;;;;;;;;;;;19.90;83.00;;;;;;5093584;28;20031;-40
2022/12/06 08:09:34;;;;;;;;;;;19.90;83.30;;;;;;5094085;28;20416;-41
2022/12/06 08:11:59;;;;;;;;;;;19.90;83.30;;;;;;5091961;28;19916;-42
2022/12/06 08:14:25;;;;;;;;;;;19.90;83.20;;;;;;5092243;28;20278;-41
2022/12/06 08:16:51;;;;;;;;;;;19.90;83.20;;;;;;5093801;28;19975;-41
2022/12/06 08:19:16;;;;;;;;;;;20.00;83.20;;;;;;5101844;28;20006;-41
2022/12/06 08:21:42;;;;;;;;;;;19.90;83.20;;;;;;5106848;28;20353;-41
2022/12/06 08:24:08;;;;;;;;;;;19.90;83.20;;;;;;5091471;28;20025;-41
2022/12/06 08:26:34;;;;;;;;;;;19.90;83.20;;;;;;5093478;28;20334;-42
2022/12/06 08:29:00;;;;;;;;;;;19.90;83.10;;;;;;5093578;28;19991;-41
2022/12/06 08:31:25;;;;;;;;;;;20.00;83.20;;;;;;5092258;28;19978;-41
2022/12/06 08:33:51;;;;;;;;;;;19.90;83.20;;;;;;5090114;28;19931;-41
2022/12/06 08:36:17;;;;;;;;;;;19.90;83.30;;;;;;5093291;28;19916;-41
2022/12/06 08:38:43;;;;;;;;;;;19.90;83.30;;;;;;5093625;28;20347;-41
2022/12/06 08:41:54;;;;;;;;;;;19.90;83.30;;;;;;5092871;28;19960;-41
2022/12/06 08:43:55;;;;;;;;;;;20.00;83.30;;;;;;5102475;28;19908;-41
2022/12/06 08:46:20;;;;;;;;;;;20.00;83.20;;;;;;5105456;28;19919;-41
2022/12/06 08:48:46;;;;;;;;;;;20.00;83.20;;;;;;5074578;28;19933;-43
2022/12/06 08:51:11;;;;;;;;;;;20.00;83.20;;;;;;5093566;28;19912;-42
2022/12/06 08:53:37;;;;;;;;;;;20.00;83.10;;;;;;5092682;28;20030;-48
2022/12/06 08:56:02;;;;;;;;;;;20.10;83.10;;;;;;5092538;28;19992;-41
2022/12/06 08:58:28;;;;;;;;;;;20.10;83.10;;;;;;5075379;28;19908;-41
2022/12/06 09:00:54;;;;;;;;;;;20.00;83.10;;;;;;5105276;28;19996;-42
2022/12/06 09:03:19;;;;;;;;;;;20.00;83.20;;;;;;5091635;28;20380;-42
2022/12/06 09:05:44;;;;;;;;;;;20.00;83.20;;;;;;5093429;28;19914;-45
2022/12/06 09:08:10;;;;;;;;;;;20.00;83.30;;;;;;5092845;28;19917;-42
2022/12/06 09:10:35;;;;;;;;;;;20.00;83.40;;;;;;5092482;28;19912;-47
2022/12/06 09:13:01;;;;;;;;;;;19.90;83.40;;;;;;5093618;28;19935;-42
2022/12/06 09:15:26;;;;;;;;;;;20.00;83.40;;;;;;5093117;28;19920;-43
2022/12/06 09:17:52;;;;;;;;;;;20.10;83.20;;;;;;5093000;28;19936;-43
2022/12/06 09:20:17;;;;;;;;;;;20.10;83.20;;;;;;5091780;28;19913;-44
2022/12/06 09:22:43;;;;;;;;;;;20.10;83.20;;;;;;5093582;28;20011;-43
2022/12/06 09:25:09;;;;;;;;;;;20.10;83.20;;;;;;5098957;28;19998;-42
2022/12/06 09:27:35;;;;;;;;;;;20.10;83.30;;;;;;5111078;28;20279;-42
2022/12/06 09:30:00;;;;;;;;;;;20.00;83.30;;;;;;5097266;28;19908;-42
2022/12/06 09:32:26;;;;;;;;;;;20.10;83.40;;;;;;5091849;28;19912;-42
2022/12/06 09:34:51;;;;;;;;;;;20.10;83.30;;;;;;5094398;28;20359;-42
2022/12/06 09:37:17;;;;;;;;;;;20.10;83.20;;;;;;5091435;28;19916;-42
2022/12/06 09:39:45;;;;;;;;;;;20.10;83.20;;;;;;5091748;28;19915;-41
2022/12/06 09:42:16;;;;;;;;;;;20.20;83.30;;;;;;5093174;28;20294;-41
2022/12/06 09:44:41;;;;;;;;;;;20.20;83.20;;;;;;5077142;28;19919;-41
2022/12/06 09:47:13;;;;;;;;;;;20.20;83.10;;;;;;5096597;28;19995;-41
2022/12/06 09:49:57;;;;;;;;;;;20.20;83.10;;;;;;5096854;28;19912;-42
2022/12/06 09:52:35;;;;;;;;;;;20.20;83.10;;;;;;5082829;28;19912;-40
2022/12/06 09:55:06;;;;;;;;;;;20.10;83.40;;;;;;5078436;28;19963;-42
2022/12/06 09:57:36;;;;;;;;;;;20.10;83.40;;;;;;5095245;28;20393;-41
2022/12/06 10:00:05;;;;;;;;;;;20.10;83.50;;;;;;5117221;28;19915;-39
2022/12/06 10:02:44;;;;;;;;;;;20.10;83.60;;;;;;5099582;28;19927;-39
2022/12/06 10:05:19;;;;;;;;;;;20.00;83.70;;;;;;5096165;28;19912;-41
2022/12/06 10:07:57;;;;;;;;;;;20.00;83.70;;;;;;5106385;28;20366;-38
2022/12/06 10:10:34;;;;;;;;;;;19.90;83.80;;;;;;5099112;28;19908;-39
2022/12/06 10:13:21;;;;;;;;;;;19.90;83.90;;;;;;5077038;28;19912;-40
2022/12/06 10:15:49;;;;;;;;;;;19.90;84.00;;;;;;5096066;28;20045;-42
2022/12/06 10:18:33;;;;;;;;;;;19.90;84.10;;;;;;5095085;28;19920;-41
2022/12/06 10:21:09;;;;;;;;;;;19.90;84.10;;;;;;5096211;28;20393;-50
2022/12/06 10:23:37;;;;;;;;;;;19.80;84.20;;;;;;5095856;28;19912;-40
2022/12/06 10:26:05;;;;;;;;;;;19.80;84.30;;;;;;5094894;28;20263;-40
2022/12/06 10:28:49;;;;;;;;;;;19.80;84.40;;;;;;5114843;28;19911;-39
2022/12/06 10:31:19;;;;;;;;;;;19.90;84.40;;;;;;5114414;28;19916;-40
2022/12/06 10:34:02;;;;;;;;;;;19.80;84.20;;;;;;5116017;28;19924;-40
2022/12/06 10:36:32;;;;;;;;;;;19.90;84.30;;;;;;5106209;28;19916;-38
2022/12/06 10:39:11;;;;;;;;;;;19.90;84.20;;;;;;5075855;28;19916;-39
2022/12/06 10:41:40;;;;;;;;;;;19.90;84.20;;;;;;5092902;28;19912;-40
2022/12/06 10:44:26;;;;;;;;;;;19.90;84.30;;;;;;5093364;28;19915;-39
2022/12/06 10:47:05;;;;;;;;;;;19.90;84.30;;;;;;5093631;28;19912;-41
2022/12/06 10:49:35;;;;;;;;;;;19.90;84.30;;;;;;5101374;28;19984;-41
2022/12/06 10:52:16;;;;;;;;;;;19.90;84.30;;;;;;5105620;28;19912;-40
2022/12/06 10:55:00;;;;;;;;;;;20.00;84.30;;;;;;5094994;28;19916;-41
2022/12/06 10:57:31;;;;;;;;;;;20.00;84.10;;;;;;5093645;28;19966;-42
2022/12/06 10:59:59;;;;;;;;;;;20.10;84.00;;;;;;5106422;28;19916;-42
2022/12/06 11:02:24;;;;;;;;;;;20.10;83.90;;;;;;5110412;28;19919;-42
2022/12/06 11:04:51;;;;;;;;;;;20.10;83.70;;;;;;5101061;28;19912;-43
2022/12/06 11:07:20;;;;;;;;;;;20.20;83.70;;;;;;5093625;28;19916;-42
2022/12/06 11:09:50;;;;;;;;;;;20.20;83.70;;;;;;5092378;28;19919;-42
2022/12/06 11:12:18;;;;;;;;;;;20.30;83.70;;;;;;5093245;28;20004;-41
2022/12/06 11:14:45;;;;;;;;;;;20.30;83.60;;;;;;5094130;28;19920;-41
2022/12/06 11:17:15;;;;;;;;;;;20.30;83.70;;;;;;5108507;28;20362;-41
2022/12/06 11:19:51;;;;;;;;;;;20.30;83.60;;;;;;5112279;28;19919;-46
2022/12/06 11:22:40;;;;;;;;;;;20.30;83.60;;;;;;5094632;28;20315;-40
2022/12/06 11:25:06;;;;;;;;;;;20.30;83.60;;;;;;5051723;28;19935;-40
2022/12/06 11:27:34;;;;;;;;;;;20.20;83.60;;;;;;5100945;28;20370;-40
2022/12/06 11:30:11;;;;;;;;;;;20.20;83.70;;;;;;5090979;28;20282;-40
2022/12/06 11:32:36;;;;;;;;;;;20.20;83.80;;;;;;5110502;28;20314;-40
2022/12/06 11:35:02;;;;;;;;;;;20.10;83.90;;;;;;5113118;28;19970;-41
2022/12/06 11:37:30;;;;;;;;;;;20.20;84.00;;;;;;5109056;28;19919;-40
2022/12/06 11:40:02;;;;;;;;;;;20.10;84.00;;;;;;5114815;28;19908;-41
2022/12/06 11:42:28;;;;;;;;;;;20.10;84.10;;;;;;5114661;28;19911;-41
2022/12/06 11:45:03;;;;;;;;;;;20.10;84.10;;;;;;5099168;28;19909;-42
2022/12/06 11:47:28;;;;;;;;;;;20.00;84.10;;;;;;5074674;28;19913;-41
2022/12/06 11:49:54;;;;;;;;;;;20.10;84.20;;;;;;5092284;28;19908;-41
2022/12/06 11:52:32;;;;;;;;;;;20.00;84.30;;;;;;5096668;28;19943;-40
2022/12/06 11:55:02;;;;;;;;;;;20.00;84.40;;;;;;5092734;28;19923;-39
2022/12/06 11:57:32;;;;;;;;;;;20.00;84.40;;;;;;5096111;28;19943;-41
2022/12/06 12:00:16;;;;;;;;;;;19.90;84.50;;;;;;5096542;28;19912;-41
2022/12/06 12:02:43;;;;;;;;;;;19.90;84.60;;;;;;5102399;28;20374;-42
2022/12/06 12:05:12;;;;;;;;;;;19.90;84.40;;;;;;5093337;28;19916;-41
2022/12/06 12:07:39;;;;;;;;;;;19.90;84.50;;;;;;5091809;28;19908;-40
2022/12/06 12:10:22;;;;;;;;;;;19.90;84.60;;;;;;5093766;28;20367;-40
2022/12/06 12:15:33;;;;;;;;;;;20.00;84.70;;;;;;5094533;28;20420;-43
2022/12/06 12:18:00;;;;;;;;;;;20.00;84.80;;;;;;5095335;28;19911;-41
2022/12/06 12:20:31;;;;;;;;;;;20.00;84.80;;;;;;5093938;28;19908;-41
2022/12/06 12:22:56;;;;;;;;;;;20.00;84.60;;;;;;5093083;28;19908;-41
2022/12/06 12:25:24;;;;;;;;;;;20.00;84.60;;;;;;5093986;28;19915;-39
2022/12/06 12:27:51;;;;;;;;;;;20.00;84.50;;;;;;5109776;28;20346;-40
2022/12/06 12:30:16;;;;;;;;;;;20.00;84.40;;;;;;5098075;28;20364;-40
2022/12/06 12:32:42;;;;;;;;;;;20.00;84.30;;;;;;5105969;28;19968;-41
2022/12/06 12:35:20;;;;;;;;;;;20.00;84.20;;;;;;5107659;28;20289;-41
2022/12/06 12:37:47;;;;;;;;;;;19.90;83.10;;;;;;5114250;28;20274;-40
2022/12/06 12:40:42;;;;;;;;;;;20.00;83.90;;;;;;5111825;28;20235;-52
2022/12/06 12:43:14;;;;;;;;;;;20.00;84.00;;;;;;5059727;28;20379;-40
2022/12/06 12:46:00;;;;;;;;;;;20.10;84.00;;;;;;5099460;28;19944;-40
2022/12/06 12:48:26;;;;;;;;;;;20.10;84.00;;;;;;5101466;28;19912;-40
2022/12/06 12:50:59;;;;;;;;;;;20.10;83.90;;;;;;5105863;28;19912;-41
2022/12/06 12:53:44;;;;;;;;;;;20.10;83.90;;;;;;5096946;28;20010;-40
2022/12/06 12:56:11;;;;;;;;;;;20.10;83.90;;;;;;5097570;28;20482;-40
2022/12/06 12:58:37;;;;;;;;;;;20.10;83.80;;;;;;5098361;28;19951;-40
2022/12/06 13:01:06;;;;;;;;;;;20.10;83.80;;;;;;5108322;28;20416;-40
2022/12/06 13:03:32;;;;;;;;;;;20.10;83.80;;;;;;5092761;28;19918;-40
2022/12/06 13:05:58;;;;;;;;;;;20.10;83.70;;;;;;5098335;28;19924;-40
2022/12/06 13:08:34;;;;;;;;;;;20.10;83.70;;;;;;5093437;28;19958;-41
2022/12/06 13:11:01;;;;;;;;;;;20.10;83.70;;;;;;5093374;28;19939;-41
2022/12/06 13:13:33;;;;;;;;;;;20.10;83.70;;;;;;5093265;28;19953;-41
2022/12/06 13:15:59;;;;;;;;;;;20.10;83.80;;;;;;5094060;28;19930;-42
2022/12/06 13:18:27;;;;;;;;;;;20.10;83.70;;;;;;5095636;28;19912;-42
2022/12/06 13:20:54;;;;;;;;;;;20.10;83.80;;;;;;5097252;28;20267;-42
2022/12/06 13:23:22;;;;;;;;;;;20.10;83.70;;;;;;5107524;28;19915;-42
2022/12/06 13:26:03;;;;;;;;;;;20.10;83.80;;;;;;5115806;28;19927;-41
2022/12/06 13:28:32;;;;;;;;;;;20.20;83.90;;;;;;5082260;28;19919;-41
2022/12/06 13:31:06;;;;;;;;;;;20.10;83.90;;;;;;5103351;28;20393;-41
2022/12/06 13:33:33;;;;;;;;;;;20.10;83.90;;;;;;5116298;28;19919;-41
2022/12/06 13:36:18;;;;;;;;;;;20.10;83.90;;;;;;5114543;28;19915;-42
2022/12/06 13:38:43;;;;;;;;;;;20.20;84.00;;;;;;5113934;28;19911;-41
2022/12/06 13:41:13;;;;;;;;;;;20.20;84.00;;;;;;5113265;28;19912;-41
2022/12/06 13:43:38;;;;;;;;;;;20.20;84.00;;;;;;5116430;28;19912;-41
2022/12/06 13:46:13;;;;;;;;;;;20.20;84.00;;;;;;5102239;28;19912;-40
2022/12/06 13:48:54;;;;;;;;;;;20.20;84.00;;;;;;5095748;28;19912;-40
2022/12/06 13:51:31;;;;;;;;;;;20.20;84.00;;;;;;5110370;28;19919;-41
2022/12/06 13:54:02;;;;;;;;;;;20.20;84.00;;;;;;5113741;28;20251;-41
2022/12/06 13:56:31;;;;;;;;;;;20.20;84.10;;;;;;5114389;28;20355;-41
2022/12/06 13:58:57;;;;;;;;;;;20.20;84.10;;;;;;5095044;28;20415;-41
2022/12/06 14:01:41;;;;;;;;;;;20.20;84.10;;;;;;5094409;28;19965;-43
2022/12/06 14:04:28;;;;;;;;;;;20.20;84.00;;;;;;5108637;28;20416;-46
2022/12/06 14:06:59;;;;;;;;;;;20.20;83.90;;;;;;5089581;28;19919;-42
2022/12/06 14:09:27;;;;;;;;;;;20.30;83.90;;;;;;5094781;28;19912;-42
2022/12/06 14:11:53;;;;;;;;;;;20.30;83.90;;;;;;5097199;28;20330;-42
2022/12/06 14:14:22;;;;;;;;;;;20.30;83.90;;;;;;5116897;28;20007;-42
2022/12/06 14:16:53;;;;;;;;;;;20.30;84.00;;;;;;5107480;28;20367;-42
2022/12/06 14:19:20;;;;;;;;;;;20.30;84.00;;;;;;5104308;28;19919;-41
2022/12/06 14:22:02;;;;;;;;;;;20.30;84.00;;;;;;5105706;28;19911;-41
2022/12/06 14:24:30;;;;;;;;;;;20.30;84.00;;;;;;5112998;28;20269;-42
2022/12/06 14:27:12;;;;;;;;;;;20.30;84.10;;;;;;5116304;28;19990;-42
2022/12/06 14:29:38;;;;;;;;;;;20.30;84.10;;;;;;5098537;28;20007;-41
2022/12/06 14:32:04;;;;;;;;;;;20.30;84.10;;;;;;5095969;28;19947;-42
2022/12/06 14:34:31;;;;;;;;;;;20.20;84.10;;;;;;5093535;28;19927;-43
2022/12/06 14:36:57;;;;;;;;;;;20.20;84.10;;;;;;5094186;28;19980;-42
2022/12/06 14:39:24;;;;;;;;;;;20.20;84.10;;;;;;5094101;28;20438;-42
2022/12/06 14:44:35;;;;;;;;;;;20.10;84.30;;;;;;5100569;28;19919;-42
2022/12/06 14:47:01;;;;;;;;;;;20.10;84.50;;;;;;5109748;28;20285;-42
2022/12/06 14:52:19;;;;;;;;;;;20.10;84.50;;;;;;5112885;28;19914;-46
2022/12/06 14:54:45;;;;;;;;;;;20.00;84.50;;;;;;5075284;28;19916;-42